createdAt,value
2019-03-23T00:01:52.411Z,100838.17
2019-03-23T00:04:35.114Z,100835.33
2019-03-23T00:07:08.775Z,100831.98
2019-03-23T00:09:45.116Z,100833.66
2019-03-23T00:12:33.148Z,100827.96
2019-03-23T00:15:16.032Z,100839.69
2019-03-23T00:17:47.164Z,100834.50
2019-03-23T00:20:21.016Z,100839.38
2019-03-23T00:22:51.604Z,100838.83
2019-03-23T00:25:22.187Z,100833.48
2019-03-23T00:27:56.102Z,100835.67
2019-03-23T00:30:26.700Z,100835.16
2019-03-23T00:32:57.897Z,100838.52
2019-03-23T00:35:31.406Z,100833.83
2019-03-23T00:38:02.438Z,100831.13
2019-03-23T00:40:36.759Z,100830.30
2019-03-23T00:43:10.141Z,100828.92
2019-03-23T00:45:41.967Z,100821.08
2019-03-23T00:48:12.680Z,100833.00
2019-03-23T00:50:43.339Z,100819.73
2019-03-23T00:53:15.409Z,100820.06
2019-03-23T00:55:46.007Z,100824.42
2019-03-23T00:58:16.414Z,100825.20
2019-03-23T01:00:47.766Z,100824.84
2019-03-23T01:03:18.629Z,100825.81
2019-03-23T01:05:51.955Z,100824.30
2019-03-23T01:08:23.911Z,100832.34
2019-03-23T01:10:55.408Z,100828.75
2019-03-23T01:13:26.045Z,100826.72
2019-03-23T01:16:05.105Z,100828.56
2019-03-23T01:18:37.321Z,100827.39
2019-03-23T01:21:11.531Z,100828.06
2019-03-23T01:23:43.624Z,100823.55
2019-03-23T01:26:16.015Z,100822.70
2019-03-23T01:28:53.780Z,100825.16
2019-03-23T01:31:26.146Z,100823.68
2019-03-23T01:33:57.144Z,100817.77
2019-03-23T01:36:27.847Z,100804.59
2019-03-23T01:38:58.522Z,100804.59
2019-03-23T01:41:30.904Z,100814.62
2019-03-23T01:44:01.476Z,100811.59
2019-03-23T01:46:40.474Z,100816.70
2019-03-23T01:49:16.292Z,100808.34
2019-03-23T01:51:49.488Z,100809.91
2019-03-23T01:54:23.168Z,100809.00
2019-03-23T01:56:55.607Z,100802.80
2019-03-23T01:59:27.206Z,100802.72
2019-03-23T02:02:03.744Z,100789.16
2019-03-23T02:04:35.530Z,100797.45
2019-03-23T02:07:13.668Z,100798.05
2019-03-23T02:09:41.381Z,100801.42
2019-03-23T02:12:15.170Z,100794.69
2019-03-23T02:14:49.992Z,100793.55
2019-03-23T02:17:21.574Z,100795.99
2019-03-23T02:19:54.810Z,100794.77
2019-03-23T02:22:27.944Z,100792.66
2019-03-23T02:24:59.574Z,100788.94
2019-03-23T02:27:33.274Z,100797.38
2019-03-23T02:30:09.859Z,100801.23
2019-03-23T02:32:40.765Z,100811.03
2019-03-23T02:35:14.304Z,100807.34
2019-03-23T02:37:52.749Z,100811.36
2019-03-23T02:40:28.205Z,100813.33
2019-03-23T02:43:00.169Z,100812.66
2019-03-23T02:45:33.098Z,100807.48
2019-03-23T02:48:03.652Z,100804.21
2019-03-23T02:50:35.505Z,100809.55
2019-03-23T02:53:06.052Z,100809.23
2019-03-23T02:55:36.694Z,100808.93
2019-03-23T02:58:07.295Z,100806.98
2019-03-23T03:00:38.144Z,100802.94
2019-03-23T03:03:18.948Z,100806.55
2019-03-23T03:05:51.225Z,100817.39
2019-03-23T03:08:28.142Z,100793.05
2019-03-23T03:11:01.692Z,100801.18
2019-03-23T03:13:33.535Z,100791.73
2019-03-23T03:16:05.048Z,100800.24
2019-03-23T03:18:37.739Z,100801.31
2019-03-23T03:21:11.364Z,100794.84
2019-03-23T03:23:44.929Z,100799.41
2019-03-23T03:26:16.433Z,100799.06
2019-03-23T03:28:47.784Z,100803.75
2019-03-23T03:31:19.065Z,100809.45
2019-03-23T03:33:49.632Z,100801.67
2019-03-23T03:36:20.408Z,100804.62
2019-03-23T03:38:51.641Z,100807.84
2019-03-23T03:41:22.425Z,100801.34
2019-03-23T03:43:53.407Z,100810.70
2019-03-23T03:46:25.980Z,100808.07
2019-03-23T03:49:11.479Z,100806.41
2019-03-23T03:51:33.920Z,100808.07
2019-03-23T03:54:04.649Z,100801.95
2019-03-23T03:56:35.106Z,100802.41
2019-03-23T03:59:08.534Z,100805.08
2019-03-23T04:01:41.538Z,100805.08
2019-03-23T04:04:12.214Z,100803.97
2019-03-23T04:06:43.662Z,100797.98
2019-03-23T04:09:18.141Z,100813.70
2019-03-23T04:11:48.789Z,100810.50
2019-03-23T04:14:19.868Z,100805.50
2019-03-23T04:16:52.365Z,100807.55
2019-03-23T04:19:27.234Z,100819.96
2019-03-23T04:21:59.187Z,100799.84
2019-03-23T04:24:30.170Z,100806.32
2019-03-23T04:27:04.785Z,100812.58
2019-03-23T04:29:36.351Z,100807.13
2019-03-23T04:32:10.687Z,100805.91
2019-03-23T04:34:42.425Z,100799.09
2019-03-23T04:37:15.673Z,100811.32
2019-03-23T04:39:49.741Z,100810.84
2019-03-23T04:42:21.398Z,100811.41
2019-03-23T04:44:53.198Z,100809.30
2019-03-23T04:47:27.136Z,100816.17
2019-03-23T04:49:58.431Z,100823.39
2019-03-23T04:52:31.186Z,100828.93
2019-03-23T04:55:04.139Z,100832.08
2019-03-23T04:57:35.467Z,100823.69
2019-03-23T05:00:08.720Z,100846.75
2019-03-23T05:02:39.770Z,100844.73
2019-03-23T05:05:16.366Z,100842.50
2019-03-23T05:07:49.517Z,100843.90
2019-03-23T05:10:21.481Z,100843.03
2019-03-23T05:12:55.442Z,100841.78
2019-03-23T05:15:27.319Z,100849.20
2019-03-23T05:17:58.253Z,100843.94
2019-03-23T05:20:33.762Z,100841.97
2019-03-23T05:23:07.548Z,100848.86
2019-03-23T05:25:38.750Z,100849.58
2019-03-23T05:28:10.498Z,100839.86
2019-03-23T05:30:41.341Z,100845.33
2019-03-23T05:33:14.499Z,100847.86
2019-03-23T05:35:45.571Z,100850.03
2019-03-23T05:38:16.459Z,100851.78
2019-03-23T05:40:47.101Z,100848.84
2019-03-23T05:43:18.890Z,100851.00
2019-03-23T05:45:49.435Z,100854.16
2019-03-23T05:48:19.952Z,100846.81
2019-03-23T05:50:50.655Z,100854.58
2019-03-23T05:53:21.202Z,100855.84
2019-03-23T05:55:52.124Z,100861.49
2019-03-23T05:58:22.914Z,100862.83
2019-03-23T06:00:54.244Z,100869.25
2019-03-23T06:03:28.825Z,100870.48
2019-03-23T06:06:02.331Z,100873.97
2019-03-23T06:08:33.284Z,100882.91
2019-03-23T06:11:08.457Z,100884.28
2019-03-23T06:13:39.967Z,100887.91
2019-03-23T06:16:10.827Z,100888.48
2019-03-23T06:18:42.412Z,100880.97
2019-03-23T06:21:13.348Z,100879.27
2019-03-23T06:23:43.895Z,100882.28
2019-03-23T06:26:14.505Z,100885.78
2019-03-23T06:28:45.942Z,100882.88
2019-03-23T06:31:16.991Z,100888.91
2019-03-23T06:33:54.711Z,100893.84
2019-03-23T06:36:34.860Z,100894.44
2019-03-23T06:39:08.095Z,100894.73
2019-03-23T06:41:38.821Z,100896.12
2019-03-23T06:44:10.802Z,100903.12
2019-03-23T06:46:41.480Z,100904.45
2019-03-23T06:49:12.097Z,100911.28
2019-03-23T06:51:43.195Z,100897.22
2019-03-23T06:54:13.766Z,100914.72
2019-03-23T06:56:44.685Z,100914.20
2019-03-23T06:59:16.637Z,100911.31
2019-03-23T07:01:49.470Z,100911.31
2019-03-23T07:04:21.950Z,100909.31
2019-03-23T07:06:52.798Z,100914.83
2019-03-23T07:09:24.876Z,100915.16
2019-03-23T07:11:56.437Z,100915.05
2019-03-23T07:14:28.218Z,100917.23
2019-03-23T07:16:59.992Z,100918.77
2019-03-23T07:19:34.267Z,100914.84
2019-03-23T07:22:05.497Z,100913.48
2019-03-23T07:24:38.088Z,100888.74
2019-03-23T07:27:10.014Z,100911.55
2019-03-23T07:29:43.556Z,100911.55
2019-03-23T07:32:21.163Z,100904.02
2019-03-23T07:34:56.645Z,100920.66
2019-03-23T07:37:29.381Z,100920.02
2019-03-23T07:40:03.098Z,100922.17
2019-03-23T07:42:34.663Z,100928.93
2019-03-23T07:45:10.712Z,100928.93
2019-03-23T07:47:43.409Z,100922.26
2019-03-23T07:50:15.870Z,100917.24
2019-03-23T07:52:48.062Z,100921.87
2019-03-23T07:55:19.622Z,100913.75
2019-03-23T07:57:52.365Z,100926.64
2019-03-23T08:00:31.347Z,100915.27
2019-03-23T08:03:04.721Z,100918.72
2019-03-23T08:05:39.517Z,100921.17
2019-03-23T08:08:15.999Z,100922.14
2019-03-23T08:10:48.436Z,100926.11
2019-03-23T08:13:22.737Z,100939.00
2019-03-23T08:15:54.212Z,100933.47
2019-03-23T08:18:29.130Z,100935.55
2019-03-23T08:21:05.051Z,100947.34
2019-03-23T08:23:40.658Z,100943.27
2019-03-23T08:26:13.454Z,100938.37
2019-03-23T08:28:45.355Z,100936.03
2019-03-23T08:31:16.013Z,100938.55
2019-03-23T08:33:47.815Z,100922.45
2019-03-23T08:36:19.440Z,100960.30
2019-03-23T08:38:53.503Z,100960.30
2019-03-23T08:41:31.004Z,100935.98
2019-03-23T08:44:02.367Z,100953.06
2019-03-23T08:46:33.305Z,100939.69
2019-03-23T08:49:05.988Z,100953.40
2019-03-23T08:51:38.980Z,100951.22
2019-03-23T08:54:10.571Z,100948.36
2019-03-23T08:56:51.338Z,100951.96
2019-03-23T08:59:25.688Z,100951.96
2019-03-23T09:01:57.905Z,100953.08
2019-03-23T09:04:29.677Z,100953.08
2019-03-23T09:07:08.354Z,100956.98
2019-03-23T09:09:47.552Z,100959.05
2019-03-23T09:12:18.908Z,100956.66
2019-03-23T09:14:50.328Z,100956.95
2019-03-23T09:17:24.170Z,100960.08
2019-03-23T09:20:02.017Z,100960.36
2019-03-23T09:22:40.883Z,100960.36
2019-03-23T09:25:14.369Z,100953.62
2019-03-23T09:27:51.976Z,100944.52
2019-03-23T09:30:26.435Z,100939.20
2019-03-23T09:33:02.198Z,100953.98
2019-03-23T09:35:34.324Z,100960.80
2019-03-23T09:38:09.311Z,100953.86
2019-03-23T09:40:47.237Z,100957.78
2019-03-23T09:43:22.384Z,100963.91
2019-03-23T09:45:53.947Z,100964.12
2019-03-23T09:48:25.558Z,100964.12
2019-03-23T09:51:02.053Z,100957.22
2019-03-23T09:53:33.843Z,100955.73
2019-03-23T09:56:06.829Z,100955.73
2019-03-23T09:58:47.357Z,100963.45
2019-03-23T10:01:23.806Z,100953.58
2019-03-23T10:03:59.104Z,100961.66
2019-03-23T10:06:30.888Z,100964.02
2019-03-23T10:09:02.874Z,100958.61
2019-03-23T10:11:38.113Z,100953.99
2019-03-23T10:14:12.032Z,100954.59
2019-03-23T10:16:44.873Z,100954.95
2019-03-23T10:19:18.688Z,100953.34
2019-03-23T10:21:59.279Z,100958.39
2019-03-23T10:24:33.021Z,100956.55
2019-03-23T10:27:04.483Z,100944.37
2019-03-23T10:29:35.250Z,100944.37
2019-03-23T10:32:11.255Z,100949.37
2019-03-23T10:34:43.249Z,100950.56
2019-03-23T10:37:14.729Z,100946.55
2019-03-23T10:39:55.386Z,100940.11
2019-03-23T10:42:28.659Z,100928.64
2019-03-23T10:45:00.453Z,100928.64
2019-03-23T10:47:31.424Z,100944.98
2019-03-23T10:50:02.063Z,100949.59
2019-03-23T10:52:55.339Z,100955.06
2019-03-23T10:55:28.078Z,100945.24
2019-03-23T10:57:58.835Z,100946.99
2019-03-23T11:00:29.670Z,100944.78
2019-03-23T11:03:08.624Z,100946.92
2019-03-23T11:05:41.255Z,100941.94
2019-03-23T11:08:20.150Z,100933.91
2019-03-23T11:10:56.049Z,100935.86
2019-03-23T11:13:33.370Z,100935.00
2019-03-23T11:16:12.364Z,100937.75
2019-03-23T11:18:52.831Z,100936.76
2019-03-23T11:21:24.341Z,100927.71
2019-03-23T11:23:57.084Z,100938.53
2019-03-23T11:26:31.444Z,100934.35
2019-03-23T11:29:03.739Z,100933.68
2019-03-23T11:31:35.372Z,100937.39
2019-03-23T11:34:17.244Z,100934.23
2019-03-23T11:36:42.358Z,100928.66
2019-03-23T11:39:17.717Z,100929.02
2019-03-23T11:41:49.939Z,100925.07
2019-03-23T11:44:21.257Z,100922.28
2019-03-23T11:46:57.074Z,100923.55
2019-03-23T11:49:38.076Z,100918.91
2019-03-23T11:52:12.019Z,100918.91
2019-03-23T11:54:47.255Z,100908.57
2019-03-23T11:57:22.832Z,100909.19
2019-03-23T12:00:19.194Z,100906.41
2019-03-23T12:03:02.745Z,100903.30
2019-03-23T12:05:37.263Z,100902.55
2019-03-23T12:08:08.735Z,100906.94
2019-03-23T12:10:47.559Z,100908.74
2019-03-23T12:13:18.299Z,100905.30
2019-03-23T12:15:50.159Z,100911.83
2019-03-23T12:18:22.280Z,100905.58
2019-03-23T12:20:58.734Z,100898.69
2019-03-23T12:23:29.456Z,100898.69
2019-03-23T12:26:03.529Z,100898.72
2019-03-23T12:28:37.578Z,100900.00
2019-03-23T12:31:10.878Z,100896.62
2019-03-23T12:33:46.360Z,100895.61
2019-03-23T12:36:19.189Z,100893.56
2019-03-23T12:38:50.358Z,100895.93
2019-03-23T12:41:23.430Z,100891.55
2019-03-23T12:43:57.255Z,100893.65
2019-03-23T12:46:49.863Z,100884.25
2019-03-23T12:49:25.419Z,100888.52
2019-03-23T12:52:02.300Z,100884.08
2019-03-23T12:54:37.206Z,100886.66
2019-03-23T12:57:17.855Z,100873.92
2019-03-23T12:59:52.935Z,100873.92
2019-03-23T13:02:32.040Z,100876.91
2019-03-23T13:05:05.253Z,100884.34
2019-03-23T13:07:40.599Z,100884.80
2019-03-23T13:10:11.431Z,100882.62
2019-03-23T13:12:47.912Z,100877.68
2019-03-23T13:15:26.981Z,100873.63
2019-03-23T13:18:06.246Z,100873.63
2019-03-23T13:20:38.432Z,100870.20
2019-03-23T13:23:16.217Z,100873.66
2019-03-23T13:25:50.497Z,100873.66
2019-03-23T13:28:27.749Z,100870.63
2019-03-23T13:31:01.720Z,100836.14
2019-03-23T13:33:33.877Z,100836.14
2019-03-23T13:36:06.605Z,100857.98
2019-03-23T13:38:58.203Z,100862.34
2019-03-23T13:41:29.759Z,100867.06
2019-03-23T13:44:07.881Z,100859.47
2019-03-23T13:46:38.844Z,100859.47
2019-03-23T13:49:13.494Z,100858.72
2019-03-23T13:51:45.020Z,100855.19
2019-03-23T13:54:19.640Z,100851.06
2019-03-23T13:56:55.750Z,100846.64
2019-03-23T13:59:30.407Z,100846.64
2019-03-23T14:02:00.948Z,100846.34
2019-03-23T14:04:34.544Z,100848.33
2019-03-23T14:07:08.449Z,100843.33
2019-03-23T14:09:48.819Z,100847.64
2019-03-23T14:12:29.853Z,100835.37
2019-03-23T14:15:00.800Z,100833.86
2019-03-23T14:17:50.432Z,100832.83
2019-03-23T14:20:35.324Z,100837.90
2019-03-23T14:23:20.424Z,100837.04
2019-03-23T14:25:56.142Z,100838.11
2019-03-23T14:28:34.596Z,100835.23
2019-03-23T14:31:08.982Z,100835.23
2019-03-23T14:33:40.613Z,100829.97
2019-03-23T14:36:12.344Z,100840.16
2019-03-23T14:38:52.030Z,100829.68
2019-03-23T14:41:30.128Z,100834.91
2019-03-23T14:44:24.873Z,100836.47
2019-03-23T14:47:06.307Z,100830.66
2019-03-23T14:49:56.717Z,100830.66
2019-03-23T14:52:36.363Z,100831.29
2019-03-23T14:55:24.833Z,100834.35
2019-03-23T14:58:05.746Z,100834.39
2019-03-23T15:00:49.184Z,100835.19
2019-03-23T15:03:26.224Z,100815.50
2019-03-23T15:06:00.977Z,100838.84
2019-03-23T15:08:42.747Z,100838.84
2019-03-23T15:11:25.421Z,100843.39
2019-03-23T15:14:07.506Z,100846.82
2019-03-23T15:16:48.987Z,100846.73
2019-03-23T15:19:23.768Z,100847.86
2019-03-23T15:21:54.510Z,100851.91
2019-03-23T15:24:30.286Z,100844.23
2019-03-23T15:27:13.525Z,100829.20
2019-03-23T15:29:50.268Z,100843.98
2019-03-23T15:32:26.748Z,100830.98
2019-03-23T15:35:06.302Z,100846.03
2019-03-23T15:37:49.677Z,100847.16
2019-03-23T15:40:23.423Z,100846.48
2019-03-23T15:43:04.187Z,100842.48
2019-03-23T15:45:44.347Z,100847.34
2019-03-23T15:48:17.062Z,100848.32
2019-03-23T15:50:52.512Z,100848.80
2019-03-23T15:53:23.486Z,100847.52
2019-03-23T15:55:54.656Z,100847.16
2019-03-23T15:58:26.112Z,100850.63
2019-03-23T16:00:59.861Z,100845.61
2019-03-23T16:03:35.819Z,100852.80
2019-03-23T16:06:07.181Z,100851.16
2019-03-23T16:08:40.126Z,100851.12
2019-03-23T16:11:28.830Z,100851.12
2019-03-23T16:14:00.368Z,100849.37
2019-03-23T16:16:34.027Z,100852.30
2019-03-23T16:19:04.616Z,100845.49
2019-03-23T16:21:36.956Z,100842.19
2019-03-23T16:24:09.696Z,100839.88
2019-03-23T16:26:44.062Z,100839.88
2019-03-23T16:29:27.516Z,100837.70
2019-03-23T16:32:04.040Z,100841.98
2019-03-23T16:34:37.452Z,100844.55
2019-03-23T16:37:09.026Z,100847.55
2019-03-23T16:39:42.732Z,100850.03
2019-03-23T16:42:44.556Z,100850.61
2019-03-23T16:45:09.992Z,100855.39
2019-03-23T16:47:43.227Z,100865.98
2019-03-23T16:50:19.774Z,100881.27
2019-03-23T16:52:51.448Z,100881.27
2019-03-23T16:55:35.587Z,100881.36
2019-03-23T16:58:15.700Z,100892.67
2019-03-23T17:00:41.437Z,100892.58
2019-03-23T17:03:18.102Z,100907.73
2019-03-23T17:05:49.438Z,100898.34
2019-03-23T17:08:24.096Z,100897.34
2019-03-23T17:10:55.579Z,100897.34
2019-03-23T17:13:47.784Z,100902.56
2019-03-23T17:16:22.586Z,100910.20
2019-03-23T17:18:53.960Z,100914.19
2019-03-23T17:21:30.154Z,100914.19
2019-03-23T17:24:00.984Z,100912.63
2019-03-23T17:26:32.653Z,100918.73
2019-03-23T17:29:08.078Z,100916.67
2019-03-23T17:31:41.593Z,100918.53
2019-03-23T17:34:24.197Z,100923.17
2019-03-23T17:37:06.031Z,100932.13
2019-03-23T17:39:45.013Z,100932.09
2019-03-23T17:42:19.183Z,100932.09
2019-03-23T17:44:56.829Z,100932.56
2019-03-23T17:47:35.695Z,100933.41
2019-03-23T17:50:07.734Z,100935.33
2019-03-23T17:52:39.518Z,100942.67
2019-03-23T17:55:14.031Z,100948.31
2019-03-23T17:57:47.411Z,100947.45
2019-03-23T18:00:21.631Z,100950.14
2019-03-23T18:02:56.265Z,100950.14
2019-03-23T18:05:32.095Z,100950.39
2019-03-23T18:08:05.591Z,100953.70
2019-03-23T18:10:39.907Z,100956.34
2019-03-23T18:13:16.778Z,100961.08
2019-03-23T18:15:51.018Z,100967.94
2019-03-23T18:18:24.407Z,100966.65
2019-03-23T18:20:58.449Z,100970.16
2019-03-23T18:23:33.009Z,100976.47
2019-03-23T18:29:13.317Z,100984.39
2019-03-23T18:31:50.218Z,100982.56
2019-03-23T18:34:24.535Z,100983.97
2019-03-23T18:36:58.713Z,100989.37
2019-03-23T18:39:30.862Z,100992.92
2019-03-23T18:42:02.705Z,100994.86
2019-03-23T18:44:39.275Z,100997.09
2019-03-23T18:47:11.267Z,101002.32
2019-03-23T18:49:42.947Z,101002.32
2019-03-23T18:52:13.840Z,100994.59
2019-03-23T18:54:49.201Z,101007.73
2019-03-23T18:57:34.665Z,100995.59
2019-03-23T19:00:36.551Z,100988.76
2019-03-23T19:03:11.047Z,101009.92
2019-03-23T19:05:42.206Z,101002.73
2019-03-23T19:08:13.746Z,101008.27
2019-03-23T19:10:48.548Z,101004.95
2019-03-23T19:13:22.991Z,101001.06
2019-03-23T19:15:55.249Z,101006.61
2019-03-23T19:18:26.694Z,100998.72
2019-03-23T19:21:12.132Z,101011.83
2019-03-23T19:23:48.359Z,101004.44
2019-03-23T19:26:20.133Z,101005.78
2019-03-23T19:28:57.537Z,100998.06
2019-03-23T19:31:39.123Z,101000.41
2019-03-23T19:34:09.216Z,100999.58
2019-03-23T19:36:47.318Z,101003.45
2019-03-23T19:39:25.471Z,100995.23
2019-03-23T19:41:59.139Z,101003.45
2019-03-23T19:44:33.178Z,101008.49
2019-03-23T19:47:07.486Z,101003.13
2019-03-23T19:49:43.231Z,101005.80
2019-03-23T19:52:15.252Z,101006.63
2019-03-23T19:54:55.072Z,101006.48
2019-03-23T19:57:35.450Z,101002.95
2019-03-23T20:00:10.397Z,101012.84
2019-03-23T20:02:44.792Z,101007.47
2019-03-23T20:05:18.849Z,101005.48
2019-03-23T20:07:53.003Z,101008.14
2019-03-23T20:10:25.616Z,101012.19
2019-03-23T20:12:57.311Z,101015.22
2019-03-23T20:15:32.749Z,101015.22
2019-03-23T20:18:08.934Z,101022.25
2019-03-23T20:20:50.074Z,101020.72
2019-03-23T20:23:20.831Z,101020.89
2019-03-23T20:25:55.389Z,101014.03
2019-03-23T20:28:26.301Z,101017.88
2019-03-23T20:30:57.794Z,101021.71
2019-03-23T20:33:29.594Z,101012.48
2019-03-23T20:36:08.076Z,101014.84
2019-03-23T20:38:43.000Z,101013.15
2019-03-23T20:41:18.529Z,101015.18
2019-03-23T20:44:08.855Z,101013.49
2019-03-23T20:46:36.280Z,101015.66
2019-03-23T20:49:13.782Z,101013.16
2019-03-23T20:51:45.846Z,101009.28
2019-03-23T20:54:22.975Z,101012.25
2019-03-23T20:56:54.638Z,101007.39
2019-03-23T20:59:31.847Z,100993.73
2019-03-23T21:02:12.853Z,101009.72
2019-03-23T21:04:41.709Z,101003.83
2019-03-23T21:07:22.082Z,101008.53
2019-03-23T21:09:56.270Z,101007.20
2019-03-23T21:12:33.399Z,101002.30
2019-03-23T21:15:14.533Z,100996.91
2019-03-23T21:17:55.872Z,101007.29
2019-03-23T21:20:32.702Z,100979.61
2019-03-23T21:23:03.781Z,100999.25
2019-03-23T21:25:40.485Z,100996.57
2019-03-23T21:28:12.661Z,100998.70
2019-03-23T21:30:48.810Z,100999.23
2019-03-23T21:33:23.286Z,100996.02
2019-03-23T21:35:56.307Z,100998.88
2019-03-23T21:38:31.334Z,100996.34
2019-03-23T21:41:02.748Z,100992.53
2019-03-23T21:43:43.066Z,100990.48
2019-03-23T21:46:12.172Z,100989.48
2019-03-23T21:48:47.102Z,100985.94
2019-03-23T21:51:20.470Z,100986.41
2019-03-23T21:53:53.606Z,100978.98
2019-03-23T21:56:24.452Z,100978.98
2019-03-23T21:58:55.748Z,100980.67
2019-03-23T22:01:30.537Z,100986.70
2019-03-23T22:04:11.488Z,100985.33
2019-03-23T22:06:45.951Z,100983.52
2019-03-23T22:09:17.974Z,100977.32
2019-03-23T22:11:48.781Z,100977.95
2019-03-23T22:14:20.858Z,100976.09
2019-03-23T22:16:52.974Z,100969.80
2019-03-23T22:19:27.194Z,100967.94
2019-03-23T22:21:58.768Z,100973.27
2019-03-23T22:24:31.174Z,100967.41
2019-03-23T22:27:04.198Z,100967.91
2019-03-23T22:29:36.236Z,100968.75
2019-03-23T22:32:12.670Z,100968.75
2019-03-23T22:34:44.397Z,100967.23
2019-03-23T22:37:19.097Z,100966.86
2019-03-23T22:39:54.028Z,100963.22
2019-03-23T22:42:28.918Z,100956.81
2019-03-23T22:45:00.859Z,100963.69
2019-03-23T22:47:32.355Z,100953.07
2019-03-23T22:50:04.138Z,100953.39
2019-03-23T22:52:45.103Z,100962.38
2019-03-23T22:55:25.642Z,100937.70
2019-03-23T22:57:59.347Z,100950.25
2019-03-23T23:00:47.075Z,100951.45
2019-03-23T23:03:19.535Z,100948.77
2019-03-23T23:05:51.320Z,100951.45
2019-03-23T23:08:22.851Z,100947.44
2019-03-23T23:10:53.551Z,100952.61
2019-03-23T23:13:25.190Z,100946.41
2019-03-23T23:15:58.129Z,100946.45
2019-03-23T23:18:29.738Z,100944.19
2019-03-23T23:21:01.291Z,100941.78
2019-03-23T23:23:32.843Z,100941.78
2019-03-23T23:26:08.582Z,100925.44
2019-03-23T23:28:40.916Z,100926.20
2019-03-23T23:31:12.545Z,100917.89
2019-03-23T23:33:43.883Z,100920.84
2019-03-23T23:36:17.820Z,100923.30
2019-03-23T23:38:52.503Z,100923.30
2019-03-23T23:41:29.098Z,100911.80
2019-03-23T23:44:01.715Z,100910.28
2019-03-23T23:46:40.429Z,100912.77
2019-03-23T23:49:23.123Z,100909.56
2019-03-23T23:51:55.993Z,100911.53
2019-03-23T23:54:27.433Z,100906.00
2019-03-23T23:57:00.635Z,100903.09
2019-03-23T23:59:32.503Z,100901.85
